sensor_id;sensor_type;location;lat;lon;timestamp;temperature;humidity
12123;DHT22;6125;59.628;17.852;2023-04-25T00:01:57;4.50;99.90
12123;DHT22;6125;59.628;17.852;2023-04-25T00:04:25;4.50;99.90
12123;DHT22;6125;59.628;17.852;2023-04-25T00:06:53;4.50;99.90
12123;DHT22;6125;59.628;17.852;2023-04-25T00:09:20;4.50;99.90
12123;DHT22;6125;59.628;17.852;2023-04-25T00:11:47;4.50;99.90
12123;DHT22;6125;59.628;17.852;2023-04-25T00:14:14;4.40;99.90
12123;DHT22;6125;59.628;17.852;2023-04-25T00:16:42;4.40;99.90
12123;DHT22;6125;59.628;17.852;2023-04-25T00:19:11;4.40;99.90
12123;DHT22;6125;59.628;17.852;2023-04-25T00:21:38;4.40;99.90
12123;DHT22;6125;59.628;17.852;2023-04-25T00:24:06;4.40;99.90
12123;DHT22;6125;59.628;17.852;2023-04-25T00:26:34;4.40;99.90
12123;DHT22;6125;59.628;17.852;2023-04-25T00:29:01;4.30;99.90
12123;DHT22;6125;59.628;17.852;2023-04-25T00:31:28;4.30;99.90
12123;DHT22;6125;59.628;17.852;2023-04-25T00:33:55;4.30;99.90
12123;DHT22;6125;59.628;17.852;2023-04-25T00:36:24;4.20;99.90
12123;DHT22;6125;59.628;17.852;2023-04-25T00:38:53;4.20;99.90
12123;DHT22;6125;59.628;17.852;2023-04-25T00:41:20;4.10;99.90
12123;DHT22;6125;59.628;17.852;2023-04-25T00:43:48;4.00;99.90
12123;DHT22;6125;59.628;17.852;2023-04-25T00:46:15;4.00;99.90
12123;DHT22;6125;59.628;17.852;2023-04-25T00:48:42;3.90;99.90
12123;DHT22;6125;59.628;17.852;2023-04-25T00:51:09;3.80;99.90
12123;DHT22;6125;59.628;17.852;2023-04-25T00:53:41;3.80;99.90
12123;DHT22;6125;59.628;17.852;2023-04-25T00:56:09;3.70;99.90
12123;DHT22;6125;59.628;17.852;2023-04-25T00:58:36;3.60;99.90
12123;DHT22;6125;59.628;17.852;2023-04-25T01:01:04;3.60;99.90
12123;DHT22;6125;59.628;17.852;2023-04-25T01:03:32;3.60;99.90
12123;DHT22;6125;59.628;17.852;2023-04-25T01:06:01;3.50;99.90
12123;DHT22;6125;59.628;17.852;2023-04-25T01:08:28;3.50;99.90
12123;DHT22;6125;59.628;17.852;2023-04-25T01:10:57;3.60;99.90
12123;DHT22;6125;59.628;17.852;2023-04-25T01:13:24;3.60;99.90
12123;DHT22;6125;59.628;17.852;2023-04-25T01:15:51;3.60;99.90
12123;DHT22;6125;59.628;17.852;2023-04-25T01:18:19;3.70;99.90
12123;DHT22;6125;59.628;17.852;2023-04-25T01:20:48;3.70;99.90
12123;DHT22;6125;59.628;17.852;2023-04-25T01:23:18;3.60;99.90
12123;DHT22;6125;59.628;17.852;2023-04-25T01:25:47;3.60;99.90
12123;DHT22;6125;59.628;17.852;2023-04-25T01:28:14;3.60;99.90
12123;DHT22;6125;59.628;17.852;2023-04-25T01:30:42;3.60;99.90
12123;DHT22;6125;59.628;17.852;2023-04-25T01:33:09;3.70;99.90
12123;DHT22;6125;59.628;17.852;2023-04-25T01:35:36;3.70;99.90
12123;DHT22;6125;59.628;17.852;2023-04-25T01:38:03;3.50;99.90
12123;DHT22;6125;59.628;17.852;2023-04-25T01:40:33;3.50;99.90
12123;DHT22;6125;59.628;17.852;2023-04-25T01:43:01;3.50;99.90
12123;DHT22;6125;59.628;17.852;2023-04-25T01:45:28;3.40;99.90
12123;DHT22;6125;59.628;17.852;2023-04-25T01:47:55;3.40;99.90
12123;DHT22;6125;59.628;17.852;2023-04-25T01:50:25;3.20;99.90
12123;DHT22;6125;59.628;17.852;2023-04-25T01:52:52;3.20;99.90
12123;DHT22;6125;59.628;17.852;2023-04-25T01:55:19;3.20;99.90
12123;DHT22;6125;59.628;17.852;2023-04-25T01:57:48;3.20;99.90
12123;DHT22;6125;59.628;17.852;2023-04-25T02:00:15;3.10;99.90
12123;DHT22;6125;59.628;17.852;2023-04-25T02:02:42;3.10;99.90
12123;DHT22;6125;59.628;17.852;2023-04-25T02:05:09;3.00;99.90
12123;DHT22;6125;59.628;17.852;2023-04-25T02:07:36;3.00;99.90
12123;DHT22;6125;59.628;17.852;2023-04-25T02:10:04;3.00;99.90
12123;DHT22;6125;59.628;17.852;2023-04-25T02:12:32;3.00;99.90
12123;DHT22;6125;59.628;17.852;2023-04-25T02:15:00;3.00;99.90
12123;DHT22;6125;59.628;17.852;2023-04-25T02:17:27;2.90;99.90
12123;DHT22;6125;59.628;17.852;2023-04-25T02:19:54;3.00;99.90
12123;DHT22;6125;59.628;17.852;2023-04-25T02:22:21;2.90;99.90
12123;DHT22;6125;59.628;17.852;2023-04-25T02:24:48;2.90;99.90
12123;DHT22;6125;59.628;17.852;2023-04-25T02:27:15;3.00;99.90
12123;DHT22;6125;59.628;17.852;2023-04-25T02:29:42;2.90;99.90
12123;DHT22;6125;59.628;17.852;2023-04-25T02:32:11;3.00;99.90
12123;DHT22;6125;59.628;17.852;2023-04-25T02:34:44;3.00;99.90
12123;DHT22;6125;59.628;17.852;2023-04-25T02:37:12;3.00;99.90
12123;DHT22;6125;59.628;17.852;2023-04-25T02:39:39;3.00;99.90
12123;DHT22;6125;59.628;17.852;2023-04-25T02:42:06;3.10;99.90
12123;DHT22;6125;59.628;17.852;2023-04-25T02:44:33;3.10;99.90
12123;DHT22;6125;59.628;17.852;2023-04-25T02:47:00;3.20;99.90
12123;DHT22;6125;59.628;17.852;2023-04-25T02:49:28;3.20;99.90
12123;DHT22;6125;59.628;17.852;2023-04-25T02:51:55;3.20;99.90
12123;DHT22;6125;59.628;17.852;2023-04-25T02:54:22;3.20;99.90
12123;DHT22;6125;59.628;17.852;2023-04-25T02:56:49;3.20;99.90
12123;DHT22;6125;59.628;17.852;2023-04-25T02:59:16;3.10;99.90
12123;DHT22;6125;59.628;17.852;2023-04-25T03:01:43;3.10;99.90
12123;DHT22;6125;59.628;17.852;2023-04-25T03:04:10;3.00;99.90
12123;DHT22;6125;59.628;17.852;2023-04-25T03:06:39;3.00;99.90
12123;DHT22;6125;59.628;17.852;2023-04-25T03:09:06;3.10;99.90
12123;DHT22;6125;59.628;17.852;2023-04-25T03:11:33;3.10;99.90
12123;DHT22;6125;59.628;17.852;2023-04-25T03:14:00;3.10;99.90
12123;DHT22;6125;59.628;17.852;2023-04-25T03:16:27;3.10;99.90
12123;DHT22;6125;59.628;17.852;2023-04-25T03:18:54;3.10;99.90
12123;DHT22;6125;59.628;17.852;2023-04-25T03:21:21;3.10;99.90
12123;DHT22;6125;59.628;17.852;2023-04-25T03:23:49;3.10;99.90
12123;DHT22;6125;59.628;17.852;2023-04-25T03:26:16;3.10;99.90
12123;DHT22;6125;59.628;17.852;2023-04-25T03:28:43;3.10;99.90
12123;DHT22;6125;59.628;17.852;2023-04-25T03:31:10;3.10;99.90
12123;DHT22;6125;59.628;17.852;2023-04-25T03:33:37;3.10;99.90
12123;DHT22;6125;59.628;17.852;2023-04-25T03:36:05;3.10;99.90
12123;DHT22;6125;59.628;17.852;2023-04-25T03:38:32;3.10;99.90
12123;DHT22;6125;59.628;17.852;2023-04-25T03:41:01;3.10;99.90
12123;DHT22;6125;59.628;17.852;2023-04-25T03:43:28;3.10;99.90
12123;DHT22;6125;59.628;17.852;2023-04-25T03:45:55;3.10;99.90
12123;DHT22;6125;59.628;17.852;2023-04-25T03:48:22;3.10;99.90
12123;DHT22;6125;59.628;17.852;2023-04-25T03:50:50;3.00;99.90
12123;DHT22;6125;59.628;17.852;2023-04-25T03:53:17;3.00;99.90
12123;DHT22;6125;59.628;17.852;2023-04-25T03:55:44;3.10;99.90
12123;DHT22;6125;59.628;17.852;2023-04-25T03:58:12;3.10;99.90
12123;DHT22;6125;59.628;17.852;2023-04-25T04:00:39;3.10;99.90
12123;DHT22;6125;59.628;17.852;2023-04-25T04:03:06;3.10;99.90
12123;DHT22;6125;59.628;17.852;2023-04-25T04:05:33;3.10;99.90
12123;DHT22;6125;59.628;17.852;2023-04-25T04:08:00;3.10;99.90
12123;DHT22;6125;59.628;17.852;2023-04-25T04:10:27;3.00;99.90
12123;DHT22;6125;59.628;17.852;2023-04-25T04:12:54;3.00;99.90
12123;DHT22;6125;59.628;17.852;2023-04-25T04:15:23;3.00;99.90
12123;DHT22;6125;59.628;17.852;2023-04-25T04:17:57;3.10;99.90
12123;DHT22;6125;59.628;17.852;2023-04-25T04:20:28;3.10;99.90
12123;DHT22;6125;59.628;17.852;2023-04-25T04:22:55;3.10;99.90
12123;DHT22;6125;59.628;17.852;2023-04-25T04:25:22;3.10;99.90
12123;DHT22;6125;59.628;17.852;2023-04-25T04:27:50;3.10;99.90
12123;DHT22;6125;59.628;17.852;2023-04-25T04:30:20;3.00;99.90
12123;DHT22;6125;59.628;17.852;2023-04-25T04:32:51;3.00;99.90
12123;DHT22;6125;59.628;17.852;2023-04-25T04:35:18;3.00;99.90
12123;DHT22;6125;59.628;17.852;2023-04-25T04:37:45;3.10;99.90
12123;DHT22;6125;59.628;17.852;2023-04-25T04:40:14;3.10;99.90
12123;DHT22;6125;59.628;17.852;2023-04-25T04:42:42;3.10;99.90
12123;DHT22;6125;59.628;17.852;2023-04-25T04:45:09;3.10;99.90
12123;DHT22;6125;59.628;17.852;2023-04-25T04:47:38;3.20;99.90
12123;DHT22;6125;59.628;17.852;2023-04-25T04:50:07;3.20;99.90
12123;DHT22;6125;59.628;17.852;2023-04-25T04:52:35;3.20;99.90
12123;DHT22;6125;59.628;17.852;2023-04-25T04:55:03;3.10;99.90
12123;DHT22;6125;59.628;17.852;2023-04-25T04:57:31;3.10;99.90
12123;DHT22;6125;59.628;17.852;2023-04-25T04:59:58;3.10;99.90
12123;DHT22;6125;59.628;17.852;2023-04-25T05:02:26;3.10;99.90
12123;DHT22;6125;59.628;17.852;2023-04-25T05:04:53;3.10;99.90
12123;DHT22;6125;59.628;17.852;2023-04-25T05:07:22;3.10;99.90
12123;DHT22;6125;59.628;17.852;2023-04-25T05:09:49;3.20;99.90
12123;DHT22;6125;59.628;17.852;2023-04-25T05:12:16;3.20;99.90
12123;DHT22;6125;59.628;17.852;2023-04-25T05:14:43;3.20;99.90
12123;DHT22;6125;59.628;17.852;2023-04-25T05:17:10;3.30;99.90
12123;DHT22;6125;59.628;17.852;2023-04-25T05:19:37;3.40;99.90
12123;DHT22;6125;59.628;17.852;2023-04-25T05:22:05;3.40;99.90
12123;DHT22;6125;59.628;17.852;2023-04-25T05:24:33;3.40;99.90
12123;DHT22;6125;59.628;17.852;2023-04-25T05:27:00;3.40;99.90
12123;DHT22;6125;59.628;17.852;2023-04-25T05:29:28;3.50;99.90
12123;DHT22;6125;59.628;17.852;2023-04-25T05:31:55;3.50;99.90
12123;DHT22;6125;59.628;17.852;2023-04-25T05:34:22;3.60;99.90
12123;DHT22;6125;59.628;17.852;2023-04-25T05:36:49;3.60;99.90
12123;DHT22;6125;59.628;17.852;2023-04-25T05:39:17;3.60;99.90
12123;DHT22;6125;59.628;17.852;2023-04-25T05:41:45;3.60;99.90
12123;DHT22;6125;59.628;17.852;2023-04-25T05:44:12;3.60;99.90
12123;DHT22;6125;59.628;17.852;2023-04-25T05:46:42;3.60;99.90
12123;DHT22;6125;59.628;17.852;2023-04-25T05:49:11;3.60;99.90
12123;DHT22;6125;59.628;17.852;2023-04-25T05:51:38;3.60;99.90
12123;DHT22;6125;59.628;17.852;2023-04-25T05:54:05;3.60;99.90
12123;DHT22;6125;59.628;17.852;2023-04-25T05:56:32;3.60;99.90
12123;DHT22;6125;59.628;17.852;2023-04-25T05:59:01;3.50;99.90
12123;DHT22;6125;59.628;17.852;2023-04-25T06:01:28;3.50;99.90
12123;DHT22;6125;59.628;17.852;2023-04-25T06:03:55;3.50;99.90
12123;DHT22;6125;59.628;17.852;2023-04-25T06:06:23;3.60;99.90
12123;DHT22;6125;59.628;17.852;2023-04-25T06:08:50;3.60;99.90
12123;DHT22;6125;59.628;17.852;2023-04-25T06:11:17;3.70;99.90
12123;DHT22;6125;59.628;17.852;2023-04-25T06:13:45;3.80;99.90
12123;DHT22;6125;59.628;17.852;2023-04-25T06:16:13;3.80;99.90
12123;DHT22;6125;59.628;17.852;2023-04-25T06:18:41;3.80;99.90
12123;DHT22;6125;59.628;17.852;2023-04-25T06:21:08;3.80;99.90
12123;DHT22;6125;59.628;17.852;2023-04-25T06:23:35;3.80;99.90
12123;DHT22;6125;59.628;17.852;2023-04-25T06:26:02;3.80;99.90
12123;DHT22;6125;59.628;17.852;2023-04-25T06:28:29;3.90;99.90
12123;DHT22;6125;59.628;17.852;2023-04-25T06:30:56;4.00;99.90
12123;DHT22;6125;59.628;17.852;2023-04-25T06:33:25;4.00;99.90
12123;DHT22;6125;59.628;17.852;2023-04-25T06:35:52;4.00;99.90
12123;DHT22;6125;59.628;17.852;2023-04-25T06:38:19;4.10;99.90
12123;DHT22;6125;59.628;17.852;2023-04-25T06:40:46;4.20;99.90
12123;DHT22;6125;59.628;17.852;2023-04-25T06:43:14;4.30;99.90
12123;DHT22;6125;59.628;17.852;2023-04-25T06:45:41;4.30;99.90
12123;DHT22;6125;59.628;17.852;2023-04-25T06:48:09;4.30;99.90
12123;DHT22;6125;59.628;17.852;2023-04-25T06:50:37;4.20;99.90
12123;DHT22;6125;59.628;17.852;2023-04-25T06:53:04;4.10;99.90
12123;DHT22;6125;59.628;17.852;2023-04-25T06:55:31;4.10;99.90
12123;DHT22;6125;59.628;17.852;2023-04-25T06:58:00;4.00;99.90
12123;DHT22;6125;59.628;17.852;2023-04-25T07:00:27;4.00;99.90
12123;DHT22;6125;59.628;17.852;2023-04-25T07:02:55;4.10;99.90
12123;DHT22;6125;59.628;17.852;2023-04-25T07:05:22;4.10;99.90
12123;DHT22;6125;59.628;17.852;2023-04-25T07:07:51;4.20;99.90
12123;DHT22;6125;59.628;17.852;2023-04-25T07:10:18;4.20;99.90
12123;DHT22;6125;59.628;17.852;2023-04-25T07:12:47;4.20;99.90
12123;DHT22;6125;59.628;17.852;2023-04-25T07:15:14;4.30;99.90
12123;DHT22;6125;59.628;17.852;2023-04-25T07:17:41;4.30;99.90
12123;DHT22;6125;59.628;17.852;2023-04-25T07:20:09;4.50;99.90
12123;DHT22;6125;59.628;17.852;2023-04-25T07:22:36;4.60;99.90
12123;DHT22;6125;59.628;17.852;2023-04-25T07:25:05;4.60;99.90
12123;DHT22;6125;59.628;17.852;2023-04-25T07:27:34;4.60;99.90
12123;DHT22;6125;59.628;17.852;2023-04-25T07:30:01;4.70;99.90
12123;DHT22;6125;59.628;17.852;2023-04-25T07:32:29;4.80;99.90
12123;DHT22;6125;59.628;17.852;2023-04-25T07:34:56;4.80;99.90
12123;DHT22;6125;59.628;17.852;2023-04-25T07:37:23;4.90;99.90
12123;DHT22;6125;59.628;17.852;2023-04-25T07:39:51;4.90;99.90
12123;DHT22;6125;59.628;17.852;2023-04-25T07:42:19;4.90;99.90
12123;DHT22;6125;59.628;17.852;2023-04-25T07:44:46;5.10;99.90
12123;DHT22;6125;59.628;17.852;2023-04-25T07:47:13;5.20;99.90
12123;DHT22;6125;59.628;17.852;2023-04-25T07:49:41;5.30;99.90
12123;DHT22;6125;59.628;17.852;2023-04-25T07:52:08;5.30;99.90
12123;DHT22;6125;59.628;17.852;2023-04-25T07:54:35;5.30;99.90
12123;DHT22;6125;59.628;17.852;2023-04-25T07:57:02;5.20;99.90
12123;DHT22;6125;59.628;17.852;2023-04-25T07:59:30;5.20;99.90
12123;DHT22;6125;59.628;17.852;2023-04-25T08:01:58;5.20;99.90
12123;DHT22;6125;59.628;17.852;2023-04-25T08:04:25;5.10;99.90
12123;DHT22;6125;59.628;17.852;2023-04-25T08:06:52;5.20;99.90
12123;DHT22;6125;59.628;17.852;2023-04-25T08:09:19;5.20;99.90
12123;DHT22;6125;59.628;17.852;2023-04-25T08:11:46;5.30;99.90
12123;DHT22;6125;59.628;17.852;2023-04-25T08:14:14;5.20;99.90
12123;DHT22;6125;59.628;17.852;2023-04-25T08:16:42;5.30;99.90
12123;DHT22;6125;59.628;17.852;2023-04-25T08:19:09;5.20;99.90
12123;DHT22;6125;59.628;17.852;2023-04-25T08:21:37;5.20;99.90
12123;DHT22;6125;59.628;17.852;2023-04-25T08:24:04;5.30;99.90
12123;DHT22;6125;59.628;17.852;2023-04-25T08:26:31;5.30;99.90
12123;DHT22;6125;59.628;17.852;2023-04-25T08:28:58;5.30;99.90
12123;DHT22;6125;59.628;17.852;2023-04-25T08:31:25;5.40;99.90
12123;DHT22;6125;59.628;17.852;2023-04-25T08:33:54;5.40;99.90
12123;DHT22;6125;59.628;17.852;2023-04-25T08:36:21;5.50;99.90
12123;DHT22;6125;59.628;17.852;2023-04-25T08:38:48;5.60;99.90
12123;DHT22;6125;59.628;17.852;2023-04-25T08:41:16;5.60;99.90
12123;DHT22;6125;59.628;17.852;2023-04-25T08:43:45;5.70;99.90
12123;DHT22;6125;59.628;17.852;2023-04-25T08:46:12;5.80;99.90
12123;DHT22;6125;59.628;17.852;2023-04-25T08:48:43;5.90;99.90
12123;DHT22;6125;59.628;17.852;2023-04-25T08:51:17;6.10;99.90
12123;DHT22;6125;59.628;17.852;2023-04-25T08:53:47;6.30;99.90
12123;DHT22;6125;59.628;17.852;2023-04-25T08:56:18;6.50;99.90
12123;DHT22;6125;59.628;17.852;2023-04-25T08:58:48;6.70;99.90
12123;DHT22;6125;59.628;17.852;2023-04-25T09:01:16;6.90;99.90
12123;DHT22;6125;59.628;17.852;2023-04-25T09:03:44;7.10;99.90
12123;DHT22;6125;59.628;17.852;2023-04-25T09:06:14;7.20;99.90
12123;DHT22;6125;59.628;17.852;2023-04-25T09:08:41;7.10;99.90
12123;DHT22;6125;59.628;17.852;2023-04-25T09:11:09;7.10;99.90
12123;DHT22;6125;59.628;17.852;2023-04-25T09:13:36;7.20;99.90
12123;DHT22;6125;59.628;17.852;2023-04-25T09:16:03;7.20;99.90
12123;DHT22;6125;59.628;17.852;2023-04-25T09:18:31;7.20;99.90
12123;DHT22;6125;59.628;17.852;2023-04-25T09:21:05;7.20;99.90
12123;DHT22;6125;59.628;17.852;2023-04-25T09:23:39;7.30;99.90
12123;DHT22;6125;59.628;17.852;2023-04-25T09:26:07;7.30;99.90
12123;DHT22;6125;59.628;17.852;2023-04-25T09:28:35;7.40;99.90
12123;DHT22;6125;59.628;17.852;2023-04-25T09:31:03;7.40;99.90
12123;DHT22;6125;59.628;17.852;2023-04-25T09:33:32;7.40;99.90
12123;DHT22;6125;59.628;17.852;2023-04-25T09:36:05;7.50;99.90
12123;DHT22;6125;59.628;17.852;2023-04-25T09:38:40;7.60;99.90
12123;DHT22;6125;59.628;17.852;2023-04-25T09:41:08;7.70;99.90
12123;DHT22;6125;59.628;17.852;2023-04-25T09:43:35;7.90;99.90
12123;DHT22;6125;59.628;17.852;2023-04-25T09:46:02;8.10;99.90
12123;DHT22;6125;59.628;17.852;2023-04-25T09:48:34;8.40;99.90
12123;DHT22;6125;59.628;17.852;2023-04-25T09:51:05;8.50;99.90
12123;DHT22;6125;59.628;17.852;2023-04-25T09:53:34;8.70;99.90
12123;DHT22;6125;59.628;17.852;2023-04-25T09:56:04;9.00;99.90
12123;DHT22;6125;59.628;17.852;2023-04-25T09:58:32;9.20;99.90
12123;DHT22;6125;59.628;17.852;2023-04-25T10:01:01;9.30;99.90
12123;DHT22;6125;59.628;17.852;2023-04-25T10:03:30;9.50;99.90
12123;DHT22;6125;59.628;17.852;2023-04-25T10:05:59;9.60;99.90
12123;DHT22;6125;59.628;17.852;2023-04-25T10:08:31;9.70;99.90
12123;DHT22;6125;59.628;17.852;2023-04-25T10:11:03;9.80;99.90
12123;DHT22;6125;59.628;17.852;2023-04-25T10:13:31;9.90;99.90
12123;DHT22;6125;59.628;17.852;2023-04-25T10:15:58;10.10;99.90
12123;DHT22;6125;59.628;17.852;2023-04-25T10:18:26;10.30;99.90
12123;DHT22;6125;59.628;17.852;2023-04-25T10:20:54;10.50;99.90
12123;DHT22;6125;59.628;17.852;2023-04-25T10:23:22;10.60;99.90
12123;DHT22;6125;59.628;17.852;2023-04-25T10:25:50;10.80;99.90
12123;DHT22;6125;59.628;17.852;2023-04-25T10:28:19;10.90;99.90
12123;DHT22;6125;59.628;17.852;2023-04-25T10:30:59;11.00;99.90
12123;DHT22;6125;59.628;17.852;2023-04-25T10:33:32;10.90;99.90
12123;DHT22;6125;59.628;17.852;2023-04-25T10:36:09;10.80;99.90
12123;DHT22;6125;59.628;17.852;2023-04-25T10:38:37;10.70;99.90
12123;DHT22;6125;59.628;17.852;2023-04-25T10:41:04;10.50;99.90
12123;DHT22;6125;59.628;17.852;2023-04-25T10:43:37;10.40;99.90
12123;DHT22;6125;59.628;17.852;2023-04-25T10:46:21;10.50;99.90
12123;DHT22;6125;59.628;17.852;2023-04-25T10:48:50;10.60;99.90
12123;DHT22;6125;59.628;17.852;2023-04-25T10:51:20;10.70;99.90
12123;DHT22;6125;59.628;17.852;2023-04-25T10:53:56;10.80;99.90
12123;DHT22;6125;59.628;17.852;2023-04-25T10:56:26;10.90;99.90
12123;DHT22;6125;59.628;17.852;2023-04-25T10:59:04;11.00;99.90
12123;DHT22;6125;59.628;17.852;2023-04-25T11:01:37;11.10;99.90
12123;DHT22;6125;59.628;17.852;2023-04-25T11:04:04;11.20;99.90
12123;DHT22;6125;59.628;17.852;2023-04-25T11:06:37;11.30;99.90
12123;DHT22;6125;59.628;17.852;2023-04-25T11:09:11;11.30;99.90
12123;DHT22;6125;59.628;17.852;2023-04-25T11:11:39;11.30;99.90
12123;DHT22;6125;59.628;17.852;2023-04-25T11:14:08;11.20;99.90
12123;DHT22;6125;59.628;17.852;2023-04-25T11:16:35;11.10;99.90
12123;DHT22;6125;59.628;17.852;2023-04-25T11:19:02;11.00;99.90
12123;DHT22;6125;59.628;17.852;2023-04-25T11:21:31;10.90;99.90
12123;DHT22;6125;59.628;17.852;2023-04-25T11:24:00;10.90;99.90
12123;DHT22;6125;59.628;17.852;2023-04-25T11:26:27;10.90;99.90
12123;DHT22;6125;59.628;17.852;2023-04-25T11:28:57;10.90;99.90
12123;DHT22;6125;59.628;17.852;2023-04-25T11:31:27;10.90;99.90
12123;DHT22;6125;59.628;17.852;2023-04-25T11:33:56;10.90;99.90
12123;DHT22;6125;59.628;17.852;2023-04-25T11:36:23;10.90;99.90
12123;DHT22;6125;59.628;17.852;2023-04-25T11:38:51;10.90;99.90
12123;DHT22;6125;59.628;17.852;2023-04-25T11:41:18;11.00;99.90
12123;DHT22;6125;59.628;17.852;2023-04-25T11:43:46;11.20;99.90
12123;DHT22;6125;59.628;17.852;2023-04-25T11:46:14;11.10;99.90
12123;DHT22;6125;59.628;17.852;2023-04-25T11:48:43;11.10;99.90
12123;DHT22;6125;59.628;17.852;2023-04-25T11:51:11;11.10;99.90
12123;DHT22;6125;59.628;17.852;2023-04-25T11:53:41;11.00;99.90
12123;DHT22;6125;59.628;17.852;2023-04-25T11:56:09;11.00;99.90
12123;DHT22;6125;59.628;17.852;2023-04-25T11:58:56;11.10;99.90
12123;DHT22;6125;59.628;17.852;2023-04-25T12:01:30;11.20;99.90
12123;DHT22;6125;59.628;17.852;2023-04-25T12:04:10;11.10;99.90
12123;DHT22;6125;59.628;17.852;2023-04-25T12:06:38;11.10;99.90
12123;DHT22;6125;59.628;17.852;2023-04-25T12:09:08;11.20;99.90
12123;DHT22;6125;59.628;17.852;2023-04-25T12:11:41;11.20;99.90
12123;DHT22;6125;59.628;17.852;2023-04-25T12:14:08;11.30;99.90
12123;DHT22;6125;59.628;17.852;2023-04-25T12:16:43;11.40;99.90
12123;DHT22;6125;59.628;17.852;2023-04-25T12:19:13;11.40;99.90
12123;DHT22;6125;59.628;17.852;2023-04-25T12:21:41;11.30;99.90
12123;DHT22;6125;59.628;17.852;2023-04-25T12:24:12;11.20;99.90
12123;DHT22;6125;59.628;17.852;2023-04-25T12:26:47;11.20;99.90
12123;DHT22;6125;59.628;17.852;2023-04-25T12:29:16;11.20;99.90
12123;DHT22;6125;59.628;17.852;2023-04-25T12:31:43;11.20;99.90
12123;DHT22;6125;59.628;17.852;2023-04-25T12:34:13;11.20;99.90
12123;DHT22;6125;59.628;17.852;2023-04-25T12:36:41;11.20;99.90
12123;DHT22;6125;59.628;17.852;2023-04-25T12:39:08;11.20;99.90
12123;DHT22;6125;59.628;17.852;2023-04-25T12:41:35;11.20;99.90
12123;DHT22;6125;59.628;17.852;2023-04-25T12:44:03;11.10;99.90
12123;DHT22;6125;59.628;17.852;2023-04-25T12:46:30;11.00;99.90
12123;DHT22;6125;59.628;17.852;2023-04-25T12:48:57;11.00;99.90
12123;DHT22;6125;59.628;17.852;2023-04-25T12:51:26;10.90;99.90
12123;DHT22;6125;59.628;17.852;2023-04-25T12:53:53;10.90;99.90
12123;DHT22;6125;59.628;17.852;2023-04-25T12:56:20;10.80;99.90
12123;DHT22;6125;59.628;17.852;2023-04-25T12:58:47;10.80;99.90
12123;DHT22;6125;59.628;17.852;2023-04-25T13:01:14;10.80;99.90
12123;DHT22;6125;59.628;17.852;2023-04-25T13:03:42;10.70;99.90
12123;DHT22;6125;59.628;17.852;2023-04-25T13:06:09;10.60;99.90
12123;DHT22;6125;59.628;17.852;2023-04-25T13:08:37;10.70;99.90
12123;DHT22;6125;59.628;17.852;2023-04-25T13:11:04;10.70;99.90
12123;DHT22;6125;59.628;17.852;2023-04-25T13:13:32;10.80;99.90
12123;DHT22;6125;59.628;17.852;2023-04-25T13:16:06;10.90;99.90
12123;DHT22;6125;59.628;17.852;2023-04-25T13:18:34;10.90;99.90
12123;DHT22;6125;59.628;17.852;2023-04-25T13:21:01;10.90;99.90
12123;DHT22;6125;59.628;17.852;2023-04-25T13:23:29;10.90;99.90
12123;DHT22;6125;59.628;17.852;2023-04-25T13:25:58;10.90;99.90
12123;DHT22;6125;59.628;17.852;2023-04-25T13:28:27;10.90;99.90
12123;DHT22;6125;59.628;17.852;2023-04-25T13:30:54;11.00;99.90
12123;DHT22;6125;59.628;17.852;2023-04-25T13:33:21;11.00;99.90
12123;DHT22;6125;59.628;17.852;2023-04-25T13:35:49;11.00;99.90
12123;DHT22;6125;59.628;17.852;2023-04-25T13:38:20;11.10;99.90
12123;DHT22;6125;59.628;17.852;2023-04-25T13:40:48;11.20;99.90
12123;DHT22;6125;59.628;17.852;2023-04-25T13:43:17;11.20;99.90
12123;DHT22;6125;59.628;17.852;2023-04-25T13:45:44;11.20;99.90
12123;DHT22;6125;59.628;17.852;2023-04-25T13:48:12;11.20;99.90
12123;DHT22;6125;59.628;17.852;2023-04-25T13:50:39;11.20;99.90
12123;DHT22;6125;59.628;17.852;2023-04-25T13:53:06;11.10;99.90
12123;DHT22;6125;59.628;17.852;2023-04-25T13:55:34;11.00;99.90
12123;DHT22;6125;59.628;17.852;2023-04-25T13:58:01;11.00;99.90
12123;DHT22;6125;59.628;17.852;2023-04-25T14:00:35;11.00;99.90
12123;DHT22;6125;59.628;17.852;2023-04-25T14:03:04;11.10;99.90
12123;DHT22;6125;59.628;17.852;2023-04-25T14:05:33;11.20;99.90
12123;DHT22;6125;59.628;17.852;2023-04-25T14:08:05;11.30;99.90
12123;DHT22;6125;59.628;17.852;2023-04-25T14:10:32;11.40;99.90
12123;DHT22;6125;59.628;17.852;2023-04-25T14:13:00;11.40;99.90
12123;DHT22;6125;59.628;17.852;2023-04-25T14:15:29;11.30;99.90
12123;DHT22;6125;59.628;17.852;2023-04-25T14:17:59;11.30;99.90
12123;DHT22;6125;59.628;17.852;2023-04-25T14:20:26;11.30;99.90
12123;DHT22;6125;59.628;17.852;2023-04-25T14:22:54;11.20;99.90
12123;DHT22;6125;59.628;17.852;2023-04-25T14:25:21;11.20;99.90
12123;DHT22;6125;59.628;17.852;2023-04-25T14:27:49;11.20;99.90
12123;DHT22;6125;59.628;17.852;2023-04-25T14:30:16;11.10;99.90
12123;DHT22;6125;59.628;17.852;2023-04-25T14:32:44;11.00;99.90
12123;DHT22;6125;59.628;17.852;2023-04-25T14:35:13;10.90;99.90
12123;DHT22;6125;59.628;17.852;2023-04-25T14:37:40;10.80;99.90
12123;DHT22;6125;59.628;17.852;2023-04-25T14:40:08;10.90;99.90
12123;DHT22;6125;59.628;17.852;2023-04-25T14:42:37;11.20;99.90
12123;DHT22;6125;59.628;17.852;2023-04-25T14:45:06;11.40;99.90
12123;DHT22;6125;59.628;17.852;2023-04-25T14:47:34;11.60;99.90
12123;DHT22;6125;59.628;17.852;2023-04-25T14:50:01;11.80;99.90
12123;DHT22;6125;59.628;17.852;2023-04-25T14:52:30;11.90;99.90
12123;DHT22;6125;59.628;17.852;2023-04-25T14:54:57;11.80;99.90
12123;DHT22;6125;59.628;17.852;2023-04-25T14:57:32;11.70;99.90
12123;DHT22;6125;59.628;17.852;2023-04-25T14:59:59;11.60;99.90
12123;DHT22;6125;59.628;17.852;2023-04-25T15:02:28;11.50;99.90
12123;DHT22;6125;59.628;17.852;2023-04-25T15:04:55;11.40;99.90
12123;DHT22;6125;59.628;17.852;2023-04-25T15:07:22;11.40;99.90
12123;DHT22;6125;59.628;17.852;2023-04-25T15:09:51;11.30;99.90
12123;DHT22;6125;59.628;17.852;2023-04-25T15:12:19;11.20;99.90
12123;DHT22;6125;59.628;17.852;2023-04-25T15:14:46;11.20;99.90
12123;DHT22;6125;59.628;17.852;2023-04-25T15:17:13;11.10;99.90
12123;DHT22;6125;59.628;17.852;2023-04-25T15:19:40;11.00;99.90
12123;DHT22;6125;59.628;17.852;2023-04-25T15:22:07;11.00;99.90
12123;DHT22;6125;59.628;17.852;2023-04-25T15:24:34;11.00;99.90
12123;DHT22;6125;59.628;17.852;2023-04-25T15:27:03;11.00;99.90
12123;DHT22;6125;59.628;17.852;2023-04-25T15:29:31;11.00;99.90
12123;DHT22;6125;59.628;17.852;2023-04-25T15:31:58;11.00;99.90
12123;DHT22;6125;59.628;17.852;2023-04-25T15:34:25;10.90;99.90
12123;DHT22;6125;59.628;17.852;2023-04-25T15:36:53;10.90;99.90
12123;DHT22;6125;59.628;17.852;2023-04-25T15:39:20;10.90;99.90
12123;DHT22;6125;59.628;17.852;2023-04-25T15:41:47;10.90;99.90
12123;DHT22;6125;59.628;17.852;2023-04-25T15:44:16;10.90;99.90
12123;DHT22;6125;59.628;17.852;2023-04-25T15:46:43;10.90;99.90